Nathrop, Colorado
Current Conditions -  °F | °C
As of 2:15 PM on Sunday 23 Nov 2014 (Local Time) from KAEJ Reporting Station
Broken Clouds Broken Clouds  
Wind Chill: -7°   Ceiling: 9000
Heat Index:   Visibility: 10mi
Dew Point: -11°   Wind: 25mph
Humidity: 43%   Direction: 330°NNW
Pressure: 29.78"   Gusts: 33mph
Location:  38.75°N, 106.08°W
Report Text: KAEJ 232115Z AUTO 33022G29KT 10SM SCT075 BKN090 00/M11 A2978 RMK AO2 T00031110
Loading
Personal Weather Stations






























Interactive Weather Map New forecast layout! Learn more

10-Day Weather Forecast

Advertisements
Track Severe Weather on mobile